Main page
METAR-TAF:

METAR-TAF

Airports :

Ilam, Iran

Ilam Airport

latitude: 33-35-09N, longitude: 046-24-20E, elevation: 1334 m

Current weather observation

The report was made 1 hour and 14 minutes ago, at 16:00 UTC
Wind 8 kt from the West/Northwest
Temperature 28°C
Humidity 15%
Pressure 1013 hPa
Visibility 10 km or more
no clouds below 1500 m and no cumulonimbus

METAR: OICI 231600Z 29008KT CAVOK 28/M01 Q1013 A2992

Time: 21:44 (17:14 UTC)

Forecast

The report was made 6 hours and 14 minutes ago, at 11:00 UTC
Forecast valid from 23 at 12 UTC to 24 at 18 UTC
Wind 10 kt from the West/Southwest
Visibility: 8000 m
Temporary
from 23 at 18 UTC to 23 at 24 UTC
Wind 10 kt from the Northwest
Becoming
from 24 at 01 UTC to 24 at 03 UTC
Wind 10 kt from the East/Southeast
Temporary
from 24 at 06 UTC to 24 at 15 UTC
Wind 10 kt from the West/Southwest

TAF: OICI 231100Z 2312/2418 24005MPS 8000 NSC TEMPO 2318/2324 32005MPS BECMG 2401/2403 12005MPS TEMPO 2406/2415 24005MPS

Weather observations and forecasts of more than 4000 airports (METAR and TAF reports).

The available stations are represented by yellow and red dots on the map.

Hover mouse over dot to see the name of the station.

Then click to see weather observations and forecasts.

To change the map : click on the green buttons with a black cross to zoom in, on the green button with a dash to zoom out, or on the green arrows for adjacent maps.


METAR-TAF: